sensor_id;sensor_type;location;lat;lon;timestamp;temperature;humidity
27779;DHT22;30234;48.090;11.464;2023-04-24T00:00:36;9.80;99.90
27779;DHT22;30234;48.090;11.464;2023-04-24T00:04:41;9.80;99.90
27779;DHT22;30234;48.090;11.464;2023-04-24T00:08:44;9.80;99.90
27779;DHT22;30234;48.090;11.464;2023-04-24T00:12:45;9.70;99.90
27779;DHT22;30234;48.090;11.464;2023-04-24T00:16:46;9.70;99.90
27779;DHT22;30234;48.090;11.464;2023-04-24T00:20:47;9.70;99.90
27779;DHT22;30234;48.090;11.464;2023-04-24T00:24:48;9.70;99.90
27779;DHT22;30234;48.090;11.464;2023-04-24T00:28:49;9.70;99.90
27779;DHT22;30234;48.090;11.464;2023-04-24T00:32:50;9.70;99.90
27779;DHT22;30234;48.090;11.464;2023-04-24T00:36:51;9.60;99.90
27779;DHT22;30234;48.090;11.464;2023-04-24T00:40:52;9.70;99.90
27779;DHT22;30234;48.090;11.464;2023-04-24T00:44:55;9.60;99.90
27779;DHT22;30234;48.090;11.464;2023-04-24T00:48:59;9.60;99.90
27779;DHT22;30234;48.090;11.464;2023-04-24T00:52:59;9.50;99.90
27779;DHT22;30234;48.090;11.464;2023-04-24T00:57:02;9.60;99.90
27779;DHT22;30234;48.090;11.464;2023-04-24T01:01:04;9.50;99.90
27779;DHT22;30234;48.090;11.464;2023-04-24T01:05:07;9.40;99.90
27779;DHT22;30234;48.090;11.464;2023-04-24T01:09:09;9.40;99.90
27779;DHT22;30234;48.090;11.464;2023-04-24T01:13:11;9.30;99.90
27779;DHT22;30234;48.090;11.464;2023-04-24T01:17:12;9.30;99.90
27779;DHT22;30234;48.090;11.464;2023-04-24T01:21:15;9.20;99.90
27779;DHT22;30234;48.090;11.464;2023-04-24T01:25:17;9.30;99.90
27779;DHT22;30234;48.090;11.464;2023-04-24T01:29:18;9.30;99.90
27779;DHT22;30234;48.090;11.464;2023-04-24T01:33:21;9.30;99.90
27779;DHT22;30234;48.090;11.464;2023-04-24T01:37:22;9.20;99.90
27779;DHT22;30234;48.090;11.464;2023-04-24T01:41:23;9.20;99.90
27779;DHT22;30234;48.090;11.464;2023-04-24T01:45:25;9.10;99.90
27779;DHT22;30234;48.090;11.464;2023-04-24T01:49:26;9.10;99.90
27779;DHT22;30234;48.090;11.464;2023-04-24T01:53:27;9.10;99.90
27779;DHT22;30234;48.090;11.464;2023-04-24T01:57:28;9.10;99.90
27779;DHT22;30234;48.090;11.464;2023-04-24T02:01:35;9.10;99.90
27779;DHT22;30234;48.090;11.464;2023-04-24T02:05:38;9.10;99.90
27779;DHT22;30234;48.090;11.464;2023-04-24T02:09:39;9.10;99.90
27779;DHT22;30234;48.090;11.464;2023-04-24T02:13:40;9.10;99.90
27779;DHT22;30234;48.090;11.464;2023-04-24T02:17:41;9.10;99.90
27779;DHT22;30234;48.090;11.464;2023-04-24T02:21:41;9.10;99.90
27779;DHT22;30234;48.090;11.464;2023-04-24T02:25:42;9.20;99.90
27779;DHT22;30234;48.090;11.464;2023-04-24T02:29:43;9.20;99.90
27779;DHT22;30234;48.090;11.464;2023-04-24T02:33:44;9.20;99.90
27779;DHT22;30234;48.090;11.464;2023-04-24T02:37:45;9.20;99.90
27779;DHT22;30234;48.090;11.464;2023-04-24T02:41:46;9.10;99.90
27779;DHT22;30234;48.090;11.464;2023-04-24T02:45:47;9.10;99.90
27779;DHT22;30234;48.090;11.464;2023-04-24T02:49:47;9.10;99.90
27779;DHT22;30234;48.090;11.464;2023-04-24T02:53:48;9.00;99.90
27779;DHT22;30234;48.090;11.464;2023-04-24T02:57:49;9.00;99.90
27779;DHT22;30234;48.090;11.464;2023-04-24T03:01:50;9.00;99.90
27779;DHT22;30234;48.090;11.464;2023-04-24T03:05:51;8.90;99.90
27779;DHT22;30234;48.090;11.464;2023-04-24T03:09:52;8.90;99.90
27779;DHT22;30234;48.090;11.464;2023-04-24T03:13:53;8.90;99.90
27779;DHT22;30234;48.090;11.464;2023-04-24T03:17:54;8.90;99.90
27779;DHT22;30234;48.090;11.464;2023-04-24T03:21:55;8.80;99.90
27779;DHT22;30234;48.090;11.464;2023-04-24T03:25:56;8.90;99.90
27779;DHT22;30234;48.090;11.464;2023-04-24T03:29:57;8.70;99.90
27779;DHT22;30234;48.090;11.464;2023-04-24T03:33:58;8.70;99.90
27779;DHT22;30234;48.090;11.464;2023-04-24T03:37:59;8.70;99.90
27779;DHT22;30234;48.090;11.464;2023-04-24T03:41:59;8.70;99.90
27779;DHT22;30234;48.090;11.464;2023-04-24T03:46:01;8.70;99.90
27779;DHT22;30234;48.090;11.464;2023-04-24T03:50:02;8.70;99.90
27779;DHT22;30234;48.090;11.464;2023-04-24T03:54:03;8.70;99.90
27779;DHT22;30234;48.090;11.464;2023-04-24T03:58:04;8.70;99.90
27779;DHT22;30234;48.090;11.464;2023-04-24T04:02:06;8.70;99.90
27779;DHT22;30234;48.090;11.464;2023-04-24T04:06:08;8.60;99.90
27779;DHT22;30234;48.090;11.464;2023-04-24T04:10:11;8.60;99.90
27779;DHT22;30234;48.090;11.464;2023-04-24T04:14:12;8.70;99.90
27779;DHT22;30234;48.090;11.464;2023-04-24T04:18:13;8.70;99.90
27779;DHT22;30234;48.090;11.464;2023-04-24T04:22:14;8.70;99.90
27779;DHT22;30234;48.090;11.464;2023-04-24T04:26:14;8.70;99.90
27779;DHT22;30234;48.090;11.464;2023-04-24T04:30:15;8.60;99.90
27779;DHT22;30234;48.090;11.464;2023-04-24T04:34:16;8.70;99.90
27779;DHT22;30234;48.090;11.464;2023-04-24T04:38:18;8.70;99.90
27779;DHT22;30234;48.090;11.464;2023-04-24T04:42:19;8.70;99.90
27779;DHT22;30234;48.090;11.464;2023-04-24T04:46:20;8.70;99.90
27779;DHT22;30234;48.090;11.464;2023-04-24T04:50:22;8.60;99.90
27779;DHT22;30234;48.090;11.464;2023-04-24T04:54:23;8.70;99.90
27779;DHT22;30234;48.090;11.464;2023-04-24T04:58:24;8.70;99.90
27779;DHT22;30234;48.090;11.464;2023-04-24T05:02:25;8.70;99.90
27779;DHT22;30234;48.090;11.464;2023-04-24T05:06:26;8.80;99.90
27779;DHT22;30234;48.090;11.464;2023-04-24T05:10:28;8.80;99.90
27779;DHT22;30234;48.090;11.464;2023-04-24T05:14:28;8.90;99.90
27779;DHT22;30234;48.090;11.464;2023-04-24T05:18:29;9.00;99.90
27779;DHT22;30234;48.090;11.464;2023-04-24T05:22:31;9.10;99.90
27779;DHT22;30234;48.090;11.464;2023-04-24T05:26:32;9.20;99.90
27779;DHT22;30234;48.090;11.464;2023-04-24T05:30:33;9.20;99.90
27779;DHT22;30234;48.090;11.464;2023-04-24T05:34:34;9.20;99.90
27779;DHT22;30234;48.090;11.464;2023-04-24T05:38:35;9.30;99.90
27779;DHT22;30234;48.090;11.464;2023-04-24T05:42:36;9.30;99.90
27779;DHT22;30234;48.090;11.464;2023-04-24T05:46:37;9.30;99.90
27779;DHT22;30234;48.090;11.464;2023-04-24T05:50:37;9.30;99.90
27779;DHT22;30234;48.090;11.464;2023-04-24T05:54:38;9.40;99.90
27779;DHT22;30234;48.090;11.464;2023-04-24T05:58:39;9.60;99.90
27779;DHT22;30234;48.090;11.464;2023-04-24T06:02:41;9.80;99.90
27779;DHT22;30234;48.090;11.464;2023-04-24T06:06:41;10.10;99.90
27779;DHT22;30234;48.090;11.464;2023-04-24T06:10:42;10.40;99.90
27779;DHT22;30234;48.090;11.464;2023-04-24T06:14:43;10.70;99.90
27779;DHT22;30234;48.090;11.464;2023-04-24T06:18:44;10.90;99.90
27779;DHT22;30234;48.090;11.464;2023-04-24T06:22:47;10.80;99.90
27779;DHT22;30234;48.090;11.464;2023-04-24T06:26:48;10.70;99.90
27779;DHT22;30234;48.090;11.464;2023-04-24T06:30:49;10.70;99.90
27779;DHT22;30234;48.090;11.464;2023-04-24T06:34:51;10.80;99.90
27779;DHT22;30234;48.090;11.464;2023-04-24T06:38:53;10.70;99.90
27779;DHT22;30234;48.090;11.464;2023-04-24T06:42:54;11.30;99.90
27779;DHT22;30234;48.090;11.464;2023-04-24T06:46:55;11.30;99.90
27779;DHT22;30234;48.090;11.464;2023-04-24T06:50:56;11.50;99.90
27779;DHT22;30234;48.090;11.464;2023-04-24T06:55:03;11.40;99.90
27779;DHT22;30234;48.090;11.464;2023-04-24T06:59:06;11.60;99.90
27779;DHT22;30234;48.090;11.464;2023-04-24T07:03:07;12.20;99.90
27779;DHT22;30234;48.090;11.464;2023-04-24T07:07:07;12.40;99.90
27779;DHT22;30234;48.090;11.464;2023-04-24T07:11:10;12.10;99.90
27779;DHT22;30234;48.090;11.464;2023-04-24T07:15:11;11.80;99.90
27779;DHT22;30234;48.090;11.464;2023-04-24T07:19:12;11.70;99.90
27779;DHT22;30234;48.090;11.464;2023-04-24T07:23:14;11.60;99.90
27779;DHT22;30234;48.090;11.464;2023-04-24T07:27:15;11.80;99.90
27779;DHT22;30234;48.090;11.464;2023-04-24T07:31:15;12.40;99.90
27779;DHT22;30234;48.090;11.464;2023-04-24T07:35:16;12.40;99.90
27779;DHT22;30234;48.090;11.464;2023-04-24T07:39:18;12.30;99.90
27779;DHT22;30234;48.090;11.464;2023-04-24T07:43:20;12.00;99.90
27779;DHT22;30234;48.090;11.464;2023-04-24T07:47:21;11.90;99.90
27779;DHT22;30234;48.090;11.464;2023-04-24T07:51:22;12.00;99.90
27779;DHT22;30234;48.090;11.464;2023-04-24T07:55:23;12.10;99.90
27779;DHT22;30234;48.090;11.464;2023-04-24T07:59:24;12.70;99.90
27779;DHT22;30234;48.090;11.464;2023-04-24T08:03:25;13.00;99.90
27779;DHT22;30234;48.090;11.464;2023-04-24T08:07:26;12.90;99.90
27779;DHT22;30234;48.090;11.464;2023-04-24T08:11:27;12.80;99.90
27779;DHT22;30234;48.090;11.464;2023-04-24T08:15:28;12.40;99.90
27779;DHT22;30234;48.090;11.464;2023-04-24T08:19:29;12.00;99.90
27779;DHT22;30234;48.090;11.464;2023-04-24T08:23:30;11.80;99.90
27779;DHT22;30234;48.090;11.464;2023-04-24T08:27:31;12.00;99.90
27779;DHT22;30234;48.090;11.464;2023-04-24T08:31:32;11.90;99.90
27779;DHT22;30234;48.090;11.464;2023-04-24T08:35:33;11.10;99.90
27779;DHT22;30234;48.090;11.464;2023-04-24T08:39:34;10.70;99.90
27779;DHT22;30234;48.090;11.464;2023-04-24T08:43:35;10.70;99.90
27779;DHT22;30234;48.090;11.464;2023-04-24T08:47:38;11.10;99.90
27779;DHT22;30234;48.090;11.464;2023-04-24T08:51:40;11.50;99.90
27779;DHT22;30234;48.090;11.464;2023-04-24T08:55:41;11.40;99.90
27779;DHT22;30234;48.090;11.464;2023-04-24T08:59:44;11.10;99.90
27779;DHT22;30234;48.090;11.464;2023-04-24T09:03:49;11.10;99.90
27779;DHT22;30234;48.090;11.464;2023-04-24T09:07:54;11.40;99.90
27779;DHT22;30234;48.090;11.464;2023-04-24T09:11:55;11.20;99.90
27779;DHT22;30234;48.090;11.464;2023-04-24T09:15:57;11.20;99.90
27779;DHT22;30234;48.090;11.464;2023-04-24T09:19:58;11.20;99.90
27779;DHT22;30234;48.090;11.464;2023-04-24T09:24:01;11.30;99.90
27779;DHT22;30234;48.090;11.464;2023-04-24T09:28:04;11.60;99.90
27779;DHT22;30234;48.090;11.464;2023-04-24T09:32:27;12.30;99.90
27779;DHT22;30234;48.090;11.464;2023-04-24T09:36:32;13.10;99.90
27779;DHT22;30234;48.090;11.464;2023-04-24T09:40:37;13.60;99.90
27779;DHT22;30234;48.090;11.464;2023-04-24T09:44:38;14.20;99.90
27779;DHT22;30234;48.090;11.464;2023-04-24T09:48:39;14.10;99.90
27779;DHT22;30234;48.090;11.464;2023-04-24T09:52:44;14.40;99.90
27779;DHT22;30234;48.090;11.464;2023-04-24T09:56:47;14.20;99.90
27779;DHT22;30234;48.090;11.464;2023-04-24T10:00:50;14.70;99.90
27779;DHT22;30234;48.090;11.464;2023-04-24T10:04:55;15.50;99.90
27779;DHT22;30234;48.090;11.464;2023-04-24T10:08:57;15.50;99.90
27779;DHT22;30234;48.090;11.464;2023-04-24T10:12:59;15.20;99.90
27779;DHT22;30234;48.090;11.464;2023-04-24T10:17:01;14.20;99.90
27779;DHT22;30234;48.090;11.464;2023-04-24T10:21:02;14.30;99.90
27779;DHT22;30234;48.090;11.464;2023-04-24T10:25:04;14.40;99.90
27779;DHT22;30234;48.090;11.464;2023-04-24T10:29:05;14.50;99.90
27779;DHT22;30234;48.090;11.464;2023-04-24T10:33:13;13.80;99.90
27779;DHT22;30234;48.090;11.464;2023-04-24T10:37:15;13.20;99.90
27779;DHT22;30234;48.090;11.464;2023-04-24T10:41:18;13.10;99.90
27779;DHT22;30234;48.090;11.464;2023-04-24T10:45:24;13.80;99.90
27779;DHT22;30234;48.090;11.464;2023-04-24T10:49:29;12.20;99.90
27779;DHT22;30234;48.090;11.464;2023-04-24T10:53:31;10.70;99.90
27779;DHT22;30234;48.090;11.464;2023-04-24T10:57:35;9.70;99.90
27779;DHT22;30234;48.090;11.464;2023-04-24T11:01:38;9.60;99.90
27779;DHT22;30234;48.090;11.464;2023-04-24T11:05:55;10.10;99.90
27779;DHT22;30234;48.090;11.464;2023-04-24T11:10:00;12.30;99.90
27779;DHT22;30234;48.090;11.464;2023-04-24T11:14:06;13.60;99.90
27779;DHT22;30234;48.090;11.464;2023-04-24T11:18:15;15.20;99.90
27779;DHT22;30234;48.090;11.464;2023-04-24T11:22:16;16.00;99.90
27779;DHT22;30234;48.090;11.464;2023-04-24T11:26:21;16.10;99.90
27779;DHT22;30234;48.090;11.464;2023-04-24T11:30:29;15.90;99.90
27779;DHT22;30234;48.090;11.464;2023-04-24T11:34:32;15.30;99.90
27779;DHT22;30234;48.090;11.464;2023-04-24T11:38:33;14.60;99.90
27779;DHT22;30234;48.090;11.464;2023-04-24T11:42:39;14.50;99.90
27779;DHT22;30234;48.090;11.464;2023-04-24T11:46:41;14.50;99.90
27779;DHT22;30234;48.090;11.464;2023-04-24T11:50:46;14.50;99.90
27779;DHT22;30234;48.090;11.464;2023-04-24T11:54:48;14.50;99.90
27779;DHT22;30234;48.090;11.464;2023-04-24T11:58:53;13.60;99.90
27779;DHT22;30234;48.090;11.464;2023-04-24T12:03:11;12.80;99.90
27779;DHT22;30234;48.090;11.464;2023-04-24T12:07:12;12.90;99.90
27779;DHT22;30234;48.090;11.464;2023-04-24T12:11:16;13.20;99.90
27779;DHT22;30234;48.090;11.464;2023-04-24T12:15:19;13.00;99.90
27779;DHT22;30234;48.090;11.464;2023-04-24T12:19:22;13.20;99.90
27779;DHT22;30234;48.090;11.464;2023-04-24T12:23:35;13.80;99.90
27779;DHT22;30234;48.090;11.464;2023-04-24T12:28:12;14.20;99.90
27779;DHT22;30234;48.090;11.464;2023-04-24T12:32:16;14.70;99.90
27779;DHT22;30234;48.090;11.464;2023-04-24T12:36:17;14.70;99.90
27779;DHT22;30234;48.090;11.464;2023-04-24T12:40:20;14.40;99.90
27779;DHT22;30234;48.090;11.464;2023-04-24T12:44:32;14.20;99.90
27779;DHT22;30234;48.090;11.464;2023-04-24T12:48:35;13.70;99.90
27779;DHT22;30234;48.090;11.464;2023-04-24T12:52:36;13.40;99.90
27779;DHT22;30234;48.090;11.464;2023-04-24T12:56:37;12.60;99.90
27779;DHT22;30234;48.090;11.464;2023-04-24T13:00:39;12.90;99.90
27779;DHT22;30234;48.090;11.464;2023-04-24T13:04:44;13.30;99.90
27779;DHT22;30234;48.090;11.464;2023-04-24T13:08:46;14.00;99.90
27779;DHT22;30234;48.090;11.464;2023-04-24T13:12:49;15.00;99.90
27779;DHT22;30234;48.090;11.464;2023-04-24T13:16:49;15.80;99.90
27779;DHT22;30234;48.090;11.464;2023-04-24T13:20:50;15.30;99.90
27779;DHT22;30234;48.090;11.464;2023-04-24T13:24:51;14.60;99.90
27779;DHT22;30234;48.090;11.464;2023-04-24T13:28:52;13.80;99.90
27779;DHT22;30234;48.090;11.464;2023-04-24T13:32:53;13.50;99.90
27779;DHT22;30234;48.090;11.464;2023-04-24T13:36:55;13.50;99.90
27779;DHT22;30234;48.090;11.464;2023-04-24T13:40:57;13.30;99.90
27779;DHT22;30234;48.090;11.464;2023-04-24T13:44:58;12.80;99.90
27779;DHT22;30234;48.090;11.464;2023-04-24T13:48:59;13.10;99.90
27779;DHT22;30234;48.090;11.464;2023-04-24T13:53:02;15.30;99.90
27779;DHT22;30234;48.090;11.464;2023-04-24T13:57:03;16.30;99.90
27779;DHT22;30234;48.090;11.464;2023-04-24T14:01:04;16.10;99.90
27779;DHT22;30234;48.090;11.464;2023-04-24T14:05:05;14.80;99.90
27779;DHT22;30234;48.090;11.464;2023-04-24T14:09:06;16.00;99.90
27779;DHT22;30234;48.090;11.464;2023-04-24T14:13:07;17.20;99.90
27779;DHT22;30234;48.090;11.464;2023-04-24T14:17:09;16.90;97.60
27779;DHT22;30234;48.090;11.464;2023-04-24T14:21:09;16.50;95.70
27779;DHT22;30234;48.090;11.464;2023-04-24T14:25:10;16.30;95.20
27779;DHT22;30234;48.090;11.464;2023-04-24T14:29:11;16.40;94.30
27779;DHT22;30234;48.090;11.464;2023-04-24T14:33:12;15.80;94.60
27779;DHT22;30234;48.090;11.464;2023-04-24T14:37:13;16.50;93.30
27779;DHT22;30234;48.090;11.464;2023-04-24T14:41:14;16.20;93.20
27779;DHT22;30234;48.090;11.464;2023-04-24T14:45:15;15.60;92.50
27779;DHT22;30234;48.090;11.464;2023-04-24T14:49:16;14.80;93.50
27779;DHT22;30234;48.090;11.464;2023-04-24T14:53:17;14.20;93.30
27779;DHT22;30234;48.090;11.464;2023-04-24T14:57:19;14.60;93.80
27779;DHT22;30234;48.090;11.464;2023-04-24T15:01:20;16.00;91.60
27779;DHT22;30234;48.090;11.464;2023-04-24T15:05:21;17.30;89.50
27779;DHT22;30234;48.090;11.464;2023-04-24T15:09:23;17.50;84.10
27779;DHT22;30234;48.090;11.464;2023-04-24T15:13:25;17.80;83.40
27779;DHT22;30234;48.090;11.464;2023-04-24T15:17:26;17.60;80.00
27779;DHT22;30234;48.090;11.464;2023-04-24T15:21:27;16.40;82.90
27779;DHT22;30234;48.090;11.464;2023-04-24T15:25:28;15.20;83.90
27779;DHT22;30234;48.090;11.464;2023-04-24T15:29:29;14.60;84.80
27779;DHT22;30234;48.090;11.464;2023-04-24T15:33:30;14.70;86.00
27779;DHT22;30234;48.090;11.464;2023-04-24T15:37:31;15.00;85.30
27779;DHT22;30234;48.090;11.464;2023-04-24T15:41:32;14.60;85.40
27779;DHT22;30234;48.090;11.464;2023-04-24T15:45:33;13.90;86.70
27779;DHT22;30234;48.090;11.464;2023-04-24T15:49:34;13.70;88.10
27779;DHT22;30234;48.090;11.464;2023-04-24T15:53:35;13.50;87.60
27779;DHT22;30234;48.090;11.464;2023-04-24T15:57:36;13.30;88.50
27779;DHT22;30234;48.090;11.464;2023-04-24T16:01:37;13.30;89.50
27779;DHT22;30234;48.090;11.464;2023-04-24T16:05:38;13.20;90.30
27779;DHT22;30234;48.090;11.464;2023-04-24T16:09:39;13.20;90.20
27779;DHT22;30234;48.090;11.464;2023-04-24T16:13:40;13.80;86.80
27779;DHT22;30234;48.090;11.464;2023-04-24T16:17:41;13.80;88.10
27779;DHT22;30234;48.090;11.464;2023-04-24T16:21:42;13.30;86.50
27779;DHT22;30234;48.090;11.464;2023-04-24T16:25:43;13.70;85.00
27779;DHT22;30234;48.090;11.464;2023-04-24T16:29:44;14.10;83.70
27779;DHT22;30234;48.090;11.464;2023-04-24T16:33:46;13.60;83.80
27779;DHT22;30234;48.090;11.464;2023-04-24T16:37:47;13.20;85.90
27779;DHT22;30234;48.090;11.464;2023-04-24T16:41:48;12.80;87.50
27779;DHT22;30234;48.090;11.464;2023-04-24T16:45:49;12.40;89.40
27779;DHT22;30234;48.090;11.464;2023-04-24T16:49:50;12.30;90.20
27779;DHT22;30234;48.090;11.464;2023-04-24T16:53:51;12.10;90.50
27779;DHT22;30234;48.090;11.464;2023-04-24T16:57:52;12.00;90.70
27779;DHT22;30234;48.090;11.464;2023-04-24T17:01:53;12.00;91.40
27779;DHT22;30234;48.090;11.464;2023-04-24T17:05:54;12.10;91.10
27779;DHT22;30234;48.090;11.464;2023-04-24T17:09:56;12.10;91.30
27779;DHT22;30234;48.090;11.464;2023-04-24T17:13:57;12.20;90.70
27779;DHT22;30234;48.090;11.464;2023-04-24T17:18:01;11.80;90.20
27779;DHT22;30234;48.090;11.464;2023-04-24T17:22:03;11.60;90.50
27779;DHT22;30234;48.090;11.464;2023-04-24T17:26:04;11.70;90.80
27779;DHT22;30234;48.090;11.464;2023-04-24T17:30:06;11.60;90.90
27779;DHT22;30234;48.090;11.464;2023-04-24T17:34:07;11.40;91.20
27779;DHT22;30234;48.090;11.464;2023-04-24T17:38:09;11.20;91.50
27779;DHT22;30234;48.090;11.464;2023-04-24T17:42:11;11.00;91.50
27779;DHT22;30234;48.090;11.464;2023-04-24T17:46:12;10.90;91.80
27779;DHT22;30234;48.090;11.464;2023-04-24T17:50:13;11.50;92.60
27779;DHT22;30234;48.090;11.464;2023-04-24T17:54:15;10.70;92.10
27779;DHT22;30234;48.090;11.464;2023-04-24T17:58:17;10.60;92.60
27779;DHT22;30234;48.090;11.464;2023-04-24T18:02:18;10.40;92.80
27779;DHT22;30234;48.090;11.464;2023-04-24T18:06:19;10.30;93.50
27779;DHT22;30234;48.090;11.464;2023-04-24T18:10:21;10.10;94.10
27779;DHT22;30234;48.090;11.464;2023-04-24T18:14:23;10.00;94.80
27779;DHT22;30234;48.090;11.464;2023-04-24T18:18:25;9.80;95.50
27779;DHT22;30234;48.090;11.464;2023-04-24T18:22:26;9.50;96.00
27779;DHT22;30234;48.090;11.464;2023-04-24T18:26:27;9.40;96.60
27779;DHT22;30234;48.090;11.464;2023-04-24T18:30:28;9.10;97.70
27779;DHT22;30234;48.090;11.464;2023-04-24T18:34:31;9.10;98.10
27779;DHT22;30234;48.090;11.464;2023-04-24T18:38:32;8.80;99.30
27779;DHT22;30234;48.090;11.464;2023-04-24T18:42:34;8.80;99.90
27779;DHT22;30234;48.090;11.464;2023-04-24T18:46:34;8.80;99.90
27779;DHT22;30234;48.090;11.464;2023-04-24T18:50:40;8.70;99.90
27779;DHT22;30234;48.090;11.464;2023-04-24T18:54:41;8.50;99.90
27779;DHT22;30234;48.090;11.464;2023-04-24T18:58:42;8.30;99.90
27779;DHT22;30234;48.090;11.464;2023-04-24T19:02:45;8.40;99.90
27779;DHT22;30234;48.090;11.464;2023-04-24T19:06:46;8.40;99.90
27779;DHT22;30234;48.090;11.464;2023-04-24T19:10:47;8.30;99.90
27779;DHT22;30234;48.090;11.464;2023-04-24T19:14:48;8.30;99.90
27779;DHT22;30234;48.090;11.464;2023-04-24T19:18:51;8.30;99.90
27779;DHT22;30234;48.090;11.464;2023-04-24T19:22:52;8.30;99.90
27779;DHT22;30234;48.090;11.464;2023-04-24T19:26:53;8.50;99.90
27779;DHT22;30234;48.090;11.464;2023-04-24T19:30:54;8.50;99.90
27779;DHT22;30234;48.090;11.464;2023-04-24T19:34:58;8.50;99.90
27779;DHT22;30234;48.090;11.464;2023-04-24T19:38:59;8.50;99.90
27779;DHT22;30234;48.090;11.464;2023-04-24T19:43:00;8.60;99.90
27779;DHT22;30234;48.090;11.464;2023-04-24T19:47:01;8.60;99.90
27779;DHT22;30234;48.090;11.464;2023-04-24T19:51:02;8.40;99.90
27779;DHT22;30234;48.090;11.464;2023-04-24T19:55:04;8.20;99.90
27779;DHT22;30234;48.090;11.464;2023-04-24T19:59:05;8.00;99.90
27779;DHT22;30234;48.090;11.464;2023-04-24T20:03:07;7.90;99.90
27779;DHT22;30234;48.090;11.464;2023-04-24T20:07:08;7.70;99.90
27779;DHT22;30234;48.090;11.464;2023-04-24T20:11:09;7.60;99.90
27779;DHT22;30234;48.090;11.464;2023-04-24T20:15:10;7.60;99.90
27779;DHT22;30234;48.090;11.464;2023-04-24T20:19:11;7.40;99.90
27779;DHT22;30234;48.090;11.464;2023-04-24T20:23:13;7.40;99.90
27779;DHT22;30234;48.090;11.464;2023-04-24T20:27:14;7.20;99.90
27779;DHT22;30234;48.090;11.464;2023-04-24T20:31:15;7.10;99.90
27779;DHT22;30234;48.090;11.464;2023-04-24T20:35:16;7.00;99.90
27779;DHT22;30234;48.090;11.464;2023-04-24T20:39:17;6.90;99.90
27779;DHT22;30234;48.090;11.464;2023-04-24T20:43:18;6.90;99.90
27779;DHT22;30234;48.090;11.464;2023-04-24T20:47:19;7.00;99.90
27779;DHT22;30234;48.090;11.464;2023-04-24T20:51:21;7.20;99.90
27779;DHT22;30234;48.090;11.464;2023-04-24T20:55:22;7.40;99.90
27779;DHT22;30234;48.090;11.464;2023-04-24T20:59:23;7.50;99.90
27779;DHT22;30234;48.090;11.464;2023-04-24T21:03:23;7.50;99.90
27779;DHT22;30234;48.090;11.464;2023-04-24T21:07:25;7.40;99.90
27779;DHT22;30234;48.090;11.464;2023-04-24T21:11:26;7.30;99.90
27779;DHT22;30234;48.090;11.464;2023-04-24T21:15:27;7.10;99.90
27779;DHT22;30234;48.090;11.464;2023-04-24T21:19:28;7.10;99.90
27779;DHT22;30234;48.090;11.464;2023-04-24T21:23:29;6.90;99.90
27779;DHT22;30234;48.090;11.464;2023-04-24T21:27:30;6.70;99.90
27779;DHT22;30234;48.090;11.464;2023-04-24T21:31:31;6.70;99.90
27779;DHT22;30234;48.090;11.464;2023-04-24T21:35:32;6.60;99.90
27779;DHT22;30234;48.090;11.464;2023-04-24T21:39:33;6.40;99.90
27779;DHT22;30234;48.090;11.464;2023-04-24T21:43:34;6.40;99.90
27779;DHT22;30234;48.090;11.464;2023-04-24T21:47:35;6.50;99.90
27779;DHT22;30234;48.090;11.464;2023-04-24T21:51:35;6.70;99.90
27779;DHT22;30234;48.090;11.464;2023-04-24T21:55:36;6.60;99.90
27779;DHT22;30234;48.090;11.464;2023-04-24T21:59:37;6.50;99.90
27779;DHT22;30234;48.090;11.464;2023-04-24T22:03:38;6.50;99.90
27779;DHT22;30234;48.090;11.464;2023-04-24T22:07:39;6.50;99.90
27779;DHT22;30234;48.090;11.464;2023-04-24T22:11:41;6.40;99.90
27779;DHT22;30234;48.090;11.464;2023-04-24T22:15:42;6.40;99.90
27779;DHT22;30234;48.090;11.464;2023-04-24T22:19:43;6.40;99.90
27779;DHT22;30234;48.090;11.464;2023-04-24T22:23:44;6.60;99.90
27779;DHT22;30234;48.090;11.464;2023-04-24T22:27:45;6.50;99.90
27779;DHT22;30234;48.090;11.464;2023-04-24T22:31:46;6.40;99.90
27779;DHT22;30234;48.090;11.464;2023-04-24T22:35:46;6.20;99.90
27779;DHT22;30234;48.090;11.464;2023-04-24T22:39:47;6.10;99.90
27779;DHT22;30234;48.090;11.464;2023-04-24T22:43:49;6.10;99.90
27779;DHT22;30234;48.090;11.464;2023-04-24T22:47:50;6.20;99.90
27779;DHT22;30234;48.090;11.464;2023-04-24T22:51:50;6.10;99.90
27779;DHT22;30234;48.090;11.464;2023-04-24T22:55:52;6.10;99.90
27779;DHT22;30234;48.090;11.464;2023-04-24T22:59:53;5.90;99.90
27779;DHT22;30234;48.090;11.464;2023-04-24T23:03:54;5.80;99.90
27779;DHT22;30234;48.090;11.464;2023-04-24T23:07:55;5.70;99.90
27779;DHT22;30234;48.090;11.464;2023-04-24T23:11:56;5.60;99.90
27779;DHT22;30234;48.090;11.464;2023-04-24T23:15:57;5.70;99.90
27779;DHT22;30234;48.090;11.464;2023-04-24T23:19:58;5.70;99.90
27779;DHT22;30234;48.090;11.464;2023-04-24T23:23:59;5.70;99.90
27779;DHT22;30234;48.090;11.464;2023-04-24T23:28:00;5.70;99.90
27779;DHT22;30234;48.090;11.464;2023-04-24T23:32:01;5.70;99.90
27779;DHT22;30234;48.090;11.464;2023-04-24T23:36:03;5.70;99.90
27779;DHT22;30234;48.090;11.464;2023-04-24T23:40:06;5.70;99.90
27779;DHT22;30234;48.090;11.464;2023-04-24T23:44:10;5.80;99.90
27779;DHT22;30234;48.090;11.464;2023-04-24T23:48:11;5.90;99.90
27779;DHT22;30234;48.090;11.464;2023-04-24T23:52:12;6.00;99.90
27779;DHT22;30234;48.090;11.464;2023-04-24T23:56:13;6.20;99.90
